createdAt,value
2018-05-12T00:01:16.641Z,101582.77
2018-05-12T00:06:07.687Z,101580.70
2018-05-12T00:10:58.749Z,101565.73
2018-05-12T00:15:49.785Z,101564.48
2018-05-12T00:20:41.532Z,101564.16
2018-05-12T00:25:33.362Z,101557.46
2018-05-12T00:30:24.383Z,101565.92
2018-05-12T00:35:15.471Z,101562.51
2018-05-12T00:40:06.477Z,101564.20
2018-05-12T00:44:57.509Z,101565.44
2018-05-12T00:49:48.539Z,101566.34
2018-05-12T00:54:39.598Z,101559.05
2018-05-12T00:59:31.362Z,101557.09
2018-05-12T01:04:22.388Z,101552.13
2018-05-12T01:09:13.469Z,101550.85
2018-05-12T01:14:04.499Z,101548.89
2018-05-12T01:18:55.548Z,101542.63
2018-05-12T01:23:47.325Z,101550.62
2018-05-12T01:28:38.442Z,101546.90
2018-05-12T01:33:29.464Z,101541.22
2018-05-12T01:38:20.524Z,101542.30
2018-05-12T01:43:11.540Z,101547.58
2018-05-12T01:48:02.569Z,101540.69
2018-05-12T01:52:53.626Z,101540.31
2018-05-12T01:57:45.448Z,101542.55
2018-05-12T02:02:36.471Z,101541.77
2018-05-12T02:07:27.487Z,101545.74
2018-05-12T02:12:18.598Z,101546.60
2018-05-12T02:17:09.662Z,101544.56
2018-05-12T02:22:01.434Z,101543.36
2018-05-12T02:26:52.460Z,101556.27
2018-05-12T02:31:43.555Z,101549.21
2018-05-12T02:36:34.606Z,101552.74
2018-05-12T02:41:25.635Z,101558.76
2018-05-12T02:46:16.651Z,101555.00
2018-05-12T02:51:07.655Z,101552.84
2018-05-12T02:55:58.735Z,101560.25
2018-05-12T03:00:49.801Z,101558.23
2018-05-12T03:05:40.853Z,101552.82
2018-05-12T03:10:31.883Z,101547.59
2018-05-12T03:15:22.928Z,101554.85
2018-05-12T03:20:13.937Z,101554.41
2018-05-12T03:25:04.960Z,101548.92
2018-05-12T03:29:55.969Z,101560.95
2018-05-12T03:34:46.989Z,101563.59
2018-05-12T03:39:38.023Z,101560.36
2018-05-12T03:44:29.051Z,101556.19
2018-05-12T03:49:20.087Z,101556.34
2018-05-12T03:54:11.137Z,101553.75
2018-05-12T03:59:02.919Z,101554.95
2018-05-12T04:03:53.979Z,101554.53
2018-05-12T04:09:04.568Z,101553.97
2018-05-12T04:13:55.652Z,101555.92
2018-05-12T04:18:46.676Z,101556.22
2018-05-12T04:23:37.688Z,101556.41
2018-05-12T04:28:28.720Z,101554.00
2018-05-12T04:33:19.817Z,101557.38
2018-05-12T04:38:10.872Z,101552.45
2018-05-12T04:43:01.914Z,101553.45
2018-05-12T04:47:52.941Z,101547.62
2018-05-12T04:52:43.955Z,101541.45
2018-05-12T04:57:34.989Z,101535.36
2018-05-12T05:02:26.057Z,101532.42
2018-05-12T05:07:17.096Z,101529.25
2018-05-12T05:12:08.121Z,101524.09
2018-05-12T05:16:59.180Z,101529.27
2018-05-12T05:21:50.255Z,101525.97
2018-05-12T05:26:41.400Z,101532.33
2018-05-12T05:31:32.596Z,101534.80
2018-05-12T05:36:24.421Z,101541.86
2018-05-12T05:41:15.449Z,101544.94
2018-05-12T05:46:07.231Z,101552.41
2018-05-12T05:50:58.309Z,101554.15
2018-05-12T05:55:49.315Z,101552.37
2018-05-12T06:00:40.364Z,101553.34
2018-05-12T06:05:32.135Z,101555.48
2018-05-12T06:10:23.178Z,101560.75
2018-05-12T06:15:14.231Z,101567.44
2018-05-12T06:20:05.240Z,101558.03
2018-05-12T06:24:56.280Z,101561.65
2018-05-12T06:29:47.309Z,101569.73
2018-05-12T06:34:38.319Z,101567.16
2018-05-12T06:39:29.456Z,101562.48
2018-05-12T06:44:20.498Z,101560.86
2018-05-12T06:49:12.280Z,101565.45
2018-05-12T06:54:03.317Z,101560.97
2018-05-12T06:58:54.365Z,101559.83
2018-05-12T07:03:45.376Z,101561.94
2018-05-12T07:08:36.425Z,101559.27
2018-05-12T07:13:28.194Z,101565.55
2018-05-12T07:18:19.237Z,101563.06
2018-05-12T07:23:10.297Z,101563.55
2018-05-12T07:28:01.324Z,101560.86
2018-05-12T07:32:53.101Z,101562.36
2018-05-12T07:37:44.112Z,101571.52
2018-05-12T07:42:35.195Z,101570.89
2018-05-12T07:47:26.282Z,101566.42
2018-05-12T07:52:17.368Z,101562.87
2018-05-12T07:57:09.136Z,101557.95
2018-05-12T08:02:00.212Z,101560.95
2018-05-12T08:06:51.282Z,101556.44
2018-05-12T08:11:42.319Z,101559.69
2018-05-12T08:16:33.359Z,101559.77
2018-05-12T08:21:24.398Z,101545.69
2018-05-12T08:26:15.439Z,101554.90
2018-05-12T08:31:07.223Z,101551.47
2018-05-12T08:35:58.251Z,101547.23
2018-05-12T08:40:49.270Z,101540.12
2018-05-12T08:45:40.415Z,101539.80
2018-05-12T08:50:31.450Z,101527.33
2018-05-12T08:55:23.999Z,101528.45
2018-05-12T09:00:15.050Z,101521.56
2018-05-12T09:05:06.077Z,101514.23
2018-05-12T09:09:57.861Z,101510.81
2018-05-12T09:14:48.899Z,101512.13
2018-05-12T09:19:39.989Z,101503.84
2018-05-12T09:24:31.022Z,101510.94
2018-05-12T09:29:22.095Z,101512.27
2018-05-12T09:34:13.115Z,101512.52
2018-05-12T09:39:04.123Z,101512.59
2018-05-12T09:43:55.250Z,101505.36
2018-05-12T09:48:46.306Z,101508.95
2018-05-12T09:53:38.079Z,101505.45
2018-05-12T09:58:29.143Z,101494.84
2018-05-12T10:03:20.277Z,101497.11
2018-05-12T10:08:11.300Z,101497.56
2018-05-12T10:13:02.345Z,101500.23
2018-05-12T10:17:54.126Z,101492.86
2018-05-12T10:22:45.214Z,101488.31
2018-05-12T10:27:36.283Z,101484.70
2018-05-12T10:32:27.342Z,101478.55
2018-05-12T10:37:18.382Z,101482.50
2018-05-12T10:42:10.303Z,101474.95
2018-05-12T10:47:01.377Z,101476.31
2018-05-12T10:51:52.414Z,101467.02
2018-05-12T10:56:43.469Z,101472.00
2018-05-12T11:01:34.535Z,101463.62
2018-05-12T11:06:26.283Z,101460.42
2018-05-12T11:11:17.350Z,101456.20
2018-05-12T11:16:08.473Z,101453.42
2018-05-12T11:20:59.406Z,101444.20
2018-05-12T11:25:50.461Z,101439.24
2018-05-12T11:30:42.348Z,101437.34
2018-05-12T11:35:33.423Z,101435.49
2018-05-12T11:40:25.227Z,101433.45
2018-05-12T11:45:16.265Z,101427.19
2018-05-12T11:50:07.375Z,101422.89
2018-05-12T11:54:58.389Z,101417.71
2018-05-12T11:59:49.430Z,101418.84
2018-05-12T12:04:41.220Z,101418.19
2018-05-12T12:09:32.356Z,101411.78
2018-05-12T12:14:23.405Z,101407.08
2018-05-12T12:19:14.466Z,101404.13
2018-05-12T12:24:06.230Z,101392.92
2018-05-12T12:28:57.356Z,101388.33
2018-05-12T12:33:48.386Z,101380.33
2018-05-12T12:38:39.424Z,101373.93
2018-05-12T12:43:31.597Z,101365.47
2018-05-12T12:48:22.702Z,101367.08
2018-05-12T12:53:13.755Z,101361.06
2018-05-12T12:58:05.665Z,101351.34
2018-05-12T13:02:56.699Z,101351.64
2018-05-12T13:07:47.720Z,101343.16
2018-05-12T13:12:38.722Z,101331.87
2018-05-12T13:17:29.758Z,101332.63
2018-05-12T13:22:20.785Z,101332.67
2018-05-12T13:27:11.864Z,101323.42
2018-05-12T13:32:03.643Z,101319.88
2018-05-12T13:36:54.723Z,101306.88
2018-05-12T13:41:45.808Z,101305.34
2018-05-12T13:46:36.831Z,101302.08
2018-05-12T13:51:27.874Z,101299.88
2018-05-12T13:56:18.895Z,101301.40
2018-05-12T14:01:10.200Z,101289.46
2018-05-12T14:06:01.211Z,101294.92
2018-05-12T14:10:52.270Z,101278.09
2018-05-12T14:15:43.317Z,101270.80
2018-05-12T14:20:35.113Z,101264.53
2018-05-12T14:25:26.228Z,101259.16
2018-05-12T14:30:17.322Z,101260.48
2018-05-12T14:35:08.377Z,101256.66
2018-05-12T14:39:59.401Z,101261.86
2018-05-12T14:44:50.465Z,101255.40
2018-05-12T14:49:41.527Z,101246.28
2018-05-12T14:54:32.631Z,101240.98
2018-05-12T14:59:24.396Z,101240.92
2018-05-12T15:04:15.451Z,101234.78
2018-05-12T15:09:06.526Z,101230.71
2018-05-12T15:13:57.579Z,101222.50
2018-05-12T15:18:48.592Z,101211.75
2018-05-12T15:23:39.670Z,101203.45
2018-05-12T15:28:30.704Z,101206.84
2018-05-12T15:33:22.474Z,101195.40
2018-05-12T15:38:13.505Z,101197.06
2018-05-12T15:43:04.553Z,101192.83
2018-05-12T15:47:55.584Z,101182.34
2018-05-12T15:52:46.609Z,101177.52
2018-05-12T15:57:38.382Z,101170.71
2018-05-12T16:02:30.257Z,101172.13
2018-05-12T16:07:21.287Z,101164.25
2018-05-12T16:12:12.382Z,101149.97
2018-05-12T16:17:04.140Z,101153.52
2018-05-12T16:21:56.678Z,101152.69
2018-05-12T16:26:47.721Z,101146.42
2018-05-12T16:31:38.854Z,101149.09
2018-05-12T16:36:29.814Z,101145.06
2018-05-12T16:41:20.869Z,101152.38
2018-05-12T16:46:12.664Z,101150.84
2018-05-12T16:51:03.777Z,101147.55
2018-05-12T16:55:54.905Z,101154.32
2018-05-12T17:00:45.933Z,101154.73
2018-05-12T17:05:36.993Z,101153.78
2018-05-12T17:10:28.771Z,101151.17
2018-05-12T17:15:19.809Z,101149.81
2018-05-12T17:20:10.849Z,101149.95
2018-05-12T17:25:01.862Z,101150.37
2018-05-12T17:29:52.938Z,101149.79
2018-05-12T17:34:44.671Z,101151.52
2018-05-12T17:39:36.453Z,101147.45
2018-05-12T17:44:27.505Z,101145.65
2018-05-12T17:49:18.592Z,101154.30
2018-05-12T17:54:09.619Z,101156.44
2018-05-12T17:59:00.685Z,101151.06
2018-05-12T18:03:51.707Z,101157.68
2018-05-12T18:08:42.755Z,101153.50
2018-05-12T18:13:33.769Z,101155.23
2018-05-12T18:18:25.527Z,101153.20
2018-05-12T18:23:16.628Z,101148.52
2018-05-12T18:28:07.636Z,101154.89
2018-05-12T18:32:58.689Z,101149.16
2018-05-12T18:37:52.133Z,101148.95
2018-05-12T18:42:43.270Z,101150.49
2018-05-12T18:47:38.286Z,101150.03
2018-05-12T18:52:29.359Z,101151.56
2018-05-12T18:57:20.427Z,101152.72
2018-05-12T19:02:11.463Z,101161.23
2018-05-12T19:07:03.219Z,101171.98
2018-05-12T19:11:55.001Z,101174.05
2018-05-12T19:16:46.031Z,101174.89
2018-05-12T19:21:37.075Z,101168.46
2018-05-12T19:26:28.276Z,101174.53
2018-05-12T19:31:19.313Z,101174.80
2018-05-12T19:36:10.337Z,101171.72
2018-05-12T19:41:01.377Z,101176.16
2018-05-12T19:45:52.387Z,101180.30
2018-05-12T19:50:43.441Z,101185.10
2018-05-12T19:55:35.249Z,101176.58
2018-05-12T20:00:26.279Z,101173.82
2018-05-12T20:05:17.337Z,101183.36
2018-05-12T20:10:08.410Z,101191.30
2018-05-12T20:14:59.471Z,101181.97
2018-05-12T20:19:51.199Z,101180.16
2018-05-12T20:24:42.229Z,101188.07
2018-05-12T20:29:33.967Z,101190.99
2018-05-12T20:34:25.747Z,101182.75
2018-05-12T20:39:16.821Z,101183.27
2018-05-12T20:44:07.879Z,101187.03
2018-05-12T20:48:58.941Z,101184.50
2018-05-12T20:53:49.971Z,101187.03
2018-05-12T20:58:40.986Z,101186.52
2018-05-12T21:03:32.011Z,101190.83
2018-05-12T21:08:23.046Z,101186.80
2018-05-12T21:13:14.047Z,101191.66
2018-05-12T21:18:05.080Z,101191.84
2018-05-12T21:22:56.125Z,101192.59
2018-05-12T21:27:47.143Z,101185.74
2018-05-12T21:32:38.158Z,101184.30
2018-05-12T21:37:29.175Z,101186.39
2018-05-12T21:42:20.253Z,101182.47
2018-05-12T21:47:11.275Z,101189.20
2018-05-12T21:52:03.066Z,101182.52
2018-05-12T21:56:54.127Z,101181.47
2018-05-12T22:01:45.916Z,101183.38
2018-05-12T22:06:36.941Z,101176.58
2018-05-12T22:11:27.983Z,101184.26
2018-05-12T22:16:19.036Z,101185.92
2018-05-12T22:21:10.843Z,101177.59
2018-05-12T22:26:01.878Z,101178.53
2018-05-12T22:30:52.919Z,101177.30
2018-05-12T22:35:44.014Z,101176.50
2018-05-12T22:40:35.031Z,101173.50
2018-05-12T22:45:26.080Z,101177.75
2018-05-12T22:50:17.101Z,101160.28
2018-05-12T22:55:08.123Z,101164.39
2018-05-12T22:59:59.167Z,101159.88
2018-05-12T23:04:50.954Z,101158.64
2018-05-12T23:09:41.977Z,101154.30
2018-05-12T23:14:33.005Z,101148.56
2018-05-12T23:19:24.047Z,101146.51
2018-05-12T23:24:15.210Z,101145.55
2018-05-12T23:29:06.220Z,101143.38
2018-05-12T23:33:57.999Z,101144.86
2018-05-12T23:38:56.093Z,101150.05
2018-05-12T23:43:47.187Z,101150.84
2018-05-12T23:48:38.976Z,101155.58
2018-05-12T23:53:30.016Z,101151.91
2018-05-12T23:58:21.858Z,101153.66
